Time;durP1;ratioP1;P1;durP2;ratioP2;P2;SDS_P1;SDS_P2;PMS_P1;PMS_P2;Temp;Humidity;BMP_temperature;BMP_pressure;BME280_temperature;BME280_humidity;BME280_pressure;Samples;Min_cycle;Max_cycle;Signal;HPM_P1;HPM_P2
2022/10/04 00:00:25;;;;;;;3.53;1.75;;;5.90;99.90;;;;;;5020520;28;20029;-33
2022/10/04 00:02:59;;;;;;;1.60;1.50;;;5.80;99.90;;;;;;5016375;28;20048;-34
2022/10/04 00:05:25;;;;;;;1.98;1.75;;;5.80;99.90;;;;;;5024016;28;20029;-32
2022/10/04 00:07:57;;;;;;;1.70;1.60;;;5.70;99.90;;;;;;5019178;28;20029;-33
2022/10/04 00:10:30;;;;;;;1.90;1.75;;;5.60;99.90;;;;;;5022589;28;21074;-33
2022/10/04 00:13:02;;;;;;;1.48;1.38;;;5.40;99.90;;;;;;5023166;28;20057;-34
2022/10/04 00:15:31;;;;;;;25.30;2.35;;;5.20;99.90;;;;;;5026537;28;20029;-32
2022/10/04 00:18:27;;;;;;;1.65;1.30;;;5.00;99.90;;;;;;5017108;28;20040;-32
2022/10/04 00:20:53;;;;;;;2.25;2.05;;;4.90;99.90;;;;;;5016086;28;20038;-31
2022/10/04 00:23:38;;;;;;;2.03;1.67;;;5.00;99.90;;;;;;5021150;28;20080;-33
2022/10/04 00:26:14;;;;;;;2.15;1.50;;;5.10;99.90;;;;;;5004658;28;20035;-34
2022/10/04 00:28:45;;;;;;;2.60;1.63;;;5.20;99.90;;;;;;5013562;28;20033;-32
2022/10/04 00:31:12;;;;;;;1.55;1.45;;;5.20;99.90;;;;;;5021900;28;21042;-33
2022/10/04 00:33:39;;;;;;;1.75;1.50;;;5.30;99.90;;;;;;5023177;28;20038;-34
2022/10/04 00:36:23;;;;;;;2.00;1.45;;;5.30;99.90;;;;;;5021079;28;20056;-32
2022/10/04 00:39:04;;;;;;;5.20;1.95;;;5.40;99.90;;;;;;5022788;28;20033;-33
2022/10/04 00:41:47;;;;;;;1.80;1.60;;;5.30;99.90;;;;;;5020408;28;20033;-32
2022/10/04 00:44:27;;;;;;;1.75;1.58;;;5.20;99.90;;;;;;5015153;28;20034;-36
2022/10/04 00:46:55;;;;;;;6.38;3.88;;;5.20;99.90;;;;;;5019481;28;20433;-32
2022/10/04 00:49:27;;;;;;;1.95;1.80;;;5.20;99.90;;;;;;5016355;28;20030;-32
2022/10/04 00:52:06;;;;;;;1.48;1.38;;;5.20;99.90;;;;;;5020110;28;20037;-32
2022/10/04 00:54:49;;;;;;;1.92;1.50;;;5.10;99.90;;;;;;5022058;28;20080;-32
2022/10/04 00:57:16;;;;;;;1.35;1.27;;;5.00;99.90;;;;;;5018682;28;22059;-32
2022/10/04 00:59:47;;;;;;;1.70;1.50;;;5.10;99.90;;;;;;5031103;28;20451;-32
2022/10/04 01:02:20;;;;;;;1.40;1.30;;;5.20;99.90;;;;;;5015817;28;20047;-32
2022/10/04 01:05:06;;;;;;;1.60;1.50;;;5.20;99.90;;;;;;5020158;28;20030;-33
2022/10/04 01:07:45;;;;;;;1.60;1.50;;;5.20;99.90;;;;;;5013264;28;20041;-38
2022/10/04 01:10:23;;;;;;;2.55;1.20;;;5.20;99.90;;;;;;5018575;28;20032;-34
2022/10/04 01:13:21;;;;;;;1.92;1.80;;;5.30;99.90;;;;;;5019091;28;20540;-34
2022/10/04 01:16:06;;;;;;;2.75;1.73;;;5.30;99.90;;;;;;5020196;28;20042;-33
2022/10/04 01:18:34;;;;;;;1.70;1.60;;;5.20;99.90;;;;;;5011126;28;20568;-34
2022/10/04 01:21:19;;;;;;;1.63;1.53;;;5.10;99.90;;;;;;5013222;28;20046;-34
2022/10/04 01:23:50;;;;;;;1.65;1.45;;;5.20;99.90;;;;;;5014394;28;20017;-32
2022/10/04 01:26:33;;;;;;;4.35;2.05;;;5.20;99.90;;;;;;5024089;28;20484;-32
2022/10/04 01:29:05;;;;;;;1.95;1.85;;;5.20;99.90;;;;;;5014889;28;20029;-32
2022/10/04 01:31:33;;;;;;;1.95;1.77;;;5.10;99.90;;;;;;5022181;28;20215;-33
2022/10/04 01:34:01;;;;;;;1.83;1.73;;;5.10;99.90;;;;;;5021041;28;20025;-35
2022/10/04 01:36:28;;;;;;;3.03;2.20;;;5.10;99.90;;;;;;4987798;28;20033;-35
2022/10/04 01:38:54;;;;;;;3.95;2.17;;;5.10;99.90;;;;;;5015524;28;20037;-33
2022/10/04 01:41:39;;;;;;;8.20;1.67;;;5.10;99.90;;;;;;5021094;28;20235;-32
2022/10/04 01:44:08;;;;;;;2.00;1.73;;;5.10;99.90;;;;;;5019033;28;20613;-33
2022/10/04 01:46:36;;;;;;;6.50;2.03;;;5.00;99.90;;;;;;5022975;28;20038;-32
2022/10/04 01:49:11;;;;;;;1.85;1.75;;;5.00;99.90;;;;;;5010254;28;20470;-34
2022/10/04 01:51:43;;;;;;;1.70;1.60;;;5.00;99.90;;;;;;5018558;28;20116;-34
2022/10/04 01:54:14;;;;;;;2.90;2.00;;;5.00;99.90;;;;;;5015920;28;20503;-37
2022/10/04 01:57:03;;;;;;;1.73;1.63;;;4.80;99.90;;;;;;5019826;28;20038;-33
2022/10/04 01:59:39;;;;;;;1.63;1.52;;;4.70;99.90;;;;;;5018283;28;20433;-33
2022/10/04 02:02:27;;;;;;;1.98;1.88;;;4.70;99.90;;;;;;5020150;28;20132;-32
2022/10/04 02:04:56;;;;;;;1.85;1.75;;;4.60;99.90;;;;;;5023608;28;20048;-32
2022/10/04 02:07:25;;;;;;;;;;;4.60;99.90;;;;;;5021017;28;20029;-34
2022/10/04 02:09:53;;;;;;;;;;;4.70;99.90;;;;;;5018703;28;19964;-33
2022/10/04 02:12:19;;;;;;;1.50;1.40;;;4.80;99.90;;;;;;5023462;28;20365;-33
2022/10/04 02:14:51;;;;;;;1.52;1.42;;;4.80;99.90;;;;;;5021335;28;20037;-33
2022/10/04 02:17:22;;;;;;;2.70;1.60;;;4.80;99.90;;;;;;5013243;28;20042;-34
2022/10/04 02:19:49;;;;;;;6.85;3.20;;;4.70;99.90;;;;;;5022989;28;20467;-33
2022/10/04 02:22:16;;;;;;;1.98;1.83;;;4.70;99.90;;;;;;5025449;28;20025;-33
2022/10/04 02:24:45;;;;;;;2.28;1.52;;;4.70;99.90;;;;;;5019607;28;20430;-34
2022/10/04 02:27:11;;;;;;;2.05;1.85;;;4.60;99.90;;;;;;5021643;28;20053;-34
2022/10/04 02:29:37;;;;;;;1.80;1.70;;;4.40;99.90;;;;;;5023288;28;20033;-33
2022/10/04 02:34:51;;;;;;;1.55;1.48;;;4.40;99.90;;;;;;5021956;28;20656;-33
2022/10/04 02:37:17;;;;;;;1.80;1.70;;;4.40;99.90;;;;;;5018698;28;20099;-34
2022/10/04 02:39:47;;;;;;;1.58;1.50;;;4.40;99.90;;;;;;5020826;28;20101;-33
2022/10/04 02:42:36;;;;;;;2.33;1.30;;;4.40;99.90;;;;;;5009967;28;20376;-34
2022/10/04 02:45:06;;;;;;;2.05;1.95;;;4.30;99.90;;;;;;5022276;28;20045;-33
2022/10/04 02:47:53;;;;;;;2.47;1.70;;;4.40;99.90;;;;;;5023077;28;20076;-38
2022/10/04 02:50:43;;;;;;;1.88;1.77;;;4.40;99.90;;;;;;5016870;28;20137;-33
2022/10/04 02:53:25;;;;;;;1.90;1.80;;;4.50;99.90;;;;;;5018773;28;20037;-33
2022/10/04 02:55:51;;;;;;;1.73;1.63;;;4.50;99.90;;;;;;5020126;28;20038;-33
2022/10/04 02:58:21;;;;;;;1.80;1.70;;;4.50;99.90;;;;;;5022578;28;20029;-34
2022/10/04 03:00:55;;;;;;;1.50;1.40;;;4.50;99.90;;;;;;5030084;28;20134;-32
2022/10/04 03:03:31;;;;;;;2.33;1.70;;;4.50;99.90;;;;;;5023959;28;20033;-32
2022/10/04 03:06:10;;;;;;;4.90;1.67;;;4.50;99.90;;;;;;5025089;28;20489;-32
2022/10/04 03:08:54;;;;;;;1.75;1.65;;;4.50;99.90;;;;;;5018474;28;20041;-33
2022/10/04 03:11:22;;;;;;;3.80;1.55;;;4.50;99.90;;;;;;5020233;28;20120;-32
2022/10/04 03:13:51;;;;;;;1.83;1.67;;;4.50;99.90;;;;;;5019128;28;20017;-34
2022/10/04 03:16:17;;;;;;;;;;;4.50;99.90;;;;;;5042197;28;20419;-33
2022/10/04 03:18:44;;;;;;;1.40;1.33;;;4.40;99.90;;;;;;5025097;28;19910;-33
2022/10/04 03:21:13;;;;;;;1.85;1.75;;;4.40;99.90;;;;;;5023642;28;21684;-33
2022/10/04 03:23:40;;;;;;;2.80;1.77;;;4.40;99.90;;;;;;5021379;28;20105;-36
2022/10/04 03:26:41;;;;;;;1.90;1.70;;;4.40;99.90;;;;;;5022738;28;20021;-35
2022/10/04 03:29:09;;;;;;;3.28;2.25;;;4.40;99.90;;;;;;5001731;28;20136;-34
2022/10/04 03:31:40;;;;;;;;;;;4.40;99.90;;;;;;5018270;28;20517;-33
2022/10/04 03:34:16;;;;;;;2.80;1.60;;;4.40;99.90;;;;;;5023786;28;19909;-35
2022/10/04 03:36:44;;;;;;;1.83;1.63;;;4.40;99.90;;;;;;5024258;28;20060;-33
2022/10/04 03:39:11;;;;;;;2.17;1.75;;;4.40;99.90;;;;;;5005196;28;20296;-35
2022/10/04 03:41:40;;;;;;;5.03;2.40;;;4.40;99.90;;;;;;5016676;28;20040;-34
2022/10/04 03:44:14;;;;;;;3.42;1.80;;;4.30;99.90;;;;;;5021465;28;20029;-37
2022/10/04 03:46:42;;;;;;;3.75;1.90;;;4.30;99.90;;;;;;5016105;28;20025;-35
2022/10/04 03:49:10;;;;;;;3.15;2.25;;;4.30;99.90;;;;;;5020518;28;20041;-37
2022/10/04 03:51:42;;;;;;;6.65;2.30;;;4.40;99.90;;;;;;5018957;28;20034;-34
2022/10/04 03:54:11;;;;;;;2.00;1.80;;;4.30;99.90;;;;;;5016922;28;20437;-38
2022/10/04 03:56:37;;;;;;;2.30;2.10;;;4.30;99.90;;;;;;5024927;28;20096;-33
2022/10/04 03:59:05;;;;;;;6.13;2.35;;;4.20;99.90;;;;;;5021079;28;20175;-32
2022/10/04 04:01:54;;;;;;;3.43;2.30;;;4.00;99.90;;;;;;5018091;28;20103;-33
2022/10/04 04:04:22;;;;;;;5.55;2.38;;;4.00;99.90;;;;;;5010050;28;20284;-38
2022/10/04 04:07:25;;;;;;;2.70;2.20;;;4.00;99.90;;;;;;5021819;28;20524;-33
2022/10/04 04:10:00;;;;;;;2.53;1.80;;;4.00;99.90;;;;;;4978046;28;20110;-33
2022/10/04 04:12:38;;;;;;;2.30;1.83;;;4.00;99.90;;;;;;5014468;28;20025;-34
2022/10/04 04:15:06;;;;;;;1.80;1.70;;;4.10;99.90;;;;;;5021946;28;20425;-34
2022/10/04 04:18:00;;;;;;;3.65;2.15;;;4.10;99.90;;;;;;5023089;28;20513;-33
2022/10/04 04:20:35;;;;;;;2.13;1.92;;;4.10;99.90;;;;;;5016049;28;20042;-35
2022/10/04 04:23:13;;;;;;;2.17;2.00;;;4.10;99.90;;;;;;5019464;28;20129;-35
2022/10/04 04:25:41;;;;;;;1.65;1.55;;;4.00;99.90;;;;;;5016801;28;20538;-34
2022/10/04 04:28:13;;;;;;;3.50;1.58;;;3.80;99.90;;;;;;5020150;28;20430;-34
2022/10/04 04:30:44;;;;;;;1.30;1.20;;;3.90;99.90;;;;;;5019736;28;20025;-34
2022/10/04 04:33:22;;;;;;;1.50;1.40;;;3.90;99.90;;;;;;5003960;28;20037;-34
2022/10/04 04:35:54;;;;;;;27.52;3.90;;;3.60;99.90;;;;;;5012303;28;20026;-32
2022/10/04 04:38:24;;;;;;;1.60;1.50;;;3.50;99.90;;;;;;5018756;28;20064;-33
2022/10/04 04:40:54;;;;;;;1.80;1.70;;;3.50;99.90;;;;;;5016942;28;20087;-34
2022/10/04 04:43:23;;;;;;;2.10;1.83;;;3.60;99.90;;;;;;5019493;28;20025;-34
2022/10/04 04:45:50;;;;;;;1.48;1.38;;;3.60;99.90;;;;;;5018233;28;20068;-33
2022/10/04 04:48:17;;;;;;;1.95;1.75;;;3.70;99.90;;;;;;5020399;28;20075;-33
2022/10/04 04:50:52;;;;;;;1.65;1.55;;;3.80;99.90;;;;;;5017143;28;20037;-40
2022/10/04 04:53:32;;;;;;;2.08;1.90;;;3.90;99.90;;;;;;5029888;28;20132;-37
2022/10/04 04:56:01;;;;;;;1.67;1.58;;;3.90;99.90;;;;;;5017461;28;20045;-35
2022/10/04 04:58:31;;;;;;;1.92;1.77;;;3.80;99.90;;;;;;5020450;28;20108;-36
2022/10/04 05:01:14;;;;;;;1.75;1.65;;;3.60;99.90;;;;;;5014753;28;20049;-34
2022/10/04 05:03:40;;;;;;;2.30;2.10;;;3.60;99.90;;;;;;5022209;28;20100;-32
2022/10/04 05:06:24;;;;;;;3.78;2.08;;;3.60;99.90;;;;;;5018680;28;20055;-32
2022/10/04 05:08:50;;;;;;;2.47;2.28;;;3.60;99.90;;;;;;5019659;28;20182;-32
2022/10/04 05:11:20;;;;;;;5.78;2.60;;;3.50;99.90;;;;;;5017483;28;20076;-36
2022/10/04 05:13:55;;;;;;;6.30;2.72;;;3.60;99.90;;;;;;5016908;28;20108;-33
2022/10/04 05:16:45;;;;;;;3.97;2.63;;;3.70;99.90;;;;;;5017200;28;20044;-35
2022/10/04 05:19:27;;;;;;;4.88;3.30;;;3.70;99.90;;;;;;5018970;28;20407;-33
2022/10/04 05:21:56;;;;;;;3.95;3.10;;;3.50;99.90;;;;;;5015341;28;20067;-35
2022/10/04 05:24:32;;;;;;;4.90;3.20;;;3.40;99.90;;;;;;4998405;28;20068;-35
2022/10/04 05:27:01;;;;;;;2.22;2.00;;;3.50;99.90;;;;;;5019793;28;20025;-35
2022/10/04 05:29:33;;;;;;;19.48;3.22;;;3.20;99.90;;;;;;5017713;28;20018;-33
2022/10/04 05:32:13;;;;;;;33.75;4.10;;;3.00;99.90;;;;;;5018337;28;21528;-35
2022/10/04 05:34:44;;;;;;;11.25;2.38;;;3.00;99.90;;;;;;5008990;28;20018;-38
2022/10/04 05:37:30;;;;;;;1.95;1.85;;;3.20;99.90;;;;;;5011185;28;20033;-33
2022/10/04 05:40:48;;;;;;;2.50;1.95;;;3.30;99.90;;;;;;5011887;28;20153;-33
2022/10/04 05:43:48;;;;;;;1.92;1.73;;;3.50;99.90;;;;;;4973881;28;20045;-36
2022/10/04 05:46:30;;;;;;;14.93;7.20;;;3.60;99.90;;;;;;5004091;28;20095;-34
2022/10/04 05:49:12;;;;;;;6.07;3.80;;;3.50;99.90;;;;;;5017751;28;20029;-33
2022/10/04 05:51:59;;;;;;;6.85;4.15;;;3.40;99.90;;;;;;5017831;28;20029;-37
2022/10/04 05:54:33;;;;;;;10.05;5.15;;;3.50;99.90;;;;;;5024767;28;20098;-35
2022/10/04 05:57:24;;;;;;;13.68;6.57;;;3.60;99.90;;;;;;5022105;28;20040;-36
2022/10/04 06:00:13;;;;;;;9.05;5.43;;;3.70;99.90;;;;;;5020465;28;20083;-32
2022/10/04 06:03:06;;;;;;;8.95;4.05;;;3.70;99.90;;;;;;5021401;28;20041;-35
2022/10/04 06:05:56;;;;;;;5.78;3.90;;;3.80;99.90;;;;;;5022022;28;20029;-35
2022/10/04 06:08:29;;;;;;;3.80;2.95;;;4.00;99.90;;;;;;5023477;28;20083;-33
2022/10/04 06:10:58;;;;;;;4.70;3.40;;;4.00;99.90;;;;;;5022239;28;20521;-36
2022/10/04 06:13:50;;;;;;;3.83;3.08;;;4.00;99.90;;;;;;5024741;28;20036;-33
2022/10/04 06:16:38;;;;;;;3.97;2.80;;;4.00;99.90;;;;;;5026083;28;20033;-34
2022/10/04 06:19:28;;;;;;;3.67;2.30;;;4.00;99.90;;;;;;5022060;28;20095;-32
2022/10/04 06:22:16;;;;;;;2.78;2.33;;;4.00;99.90;;;;;;5015501;28;20056;-38
2022/10/04 06:24:46;;;;;;;3.97;2.73;;;4.10;99.90;;;;;;5021871;28;20030;-34
2022/10/04 06:27:31;;;;;;;3.25;2.50;;;4.20;99.90;;;;;;5017236;28;21155;-36
2022/10/04 06:30:12;;;;;;;5.68;2.90;;;4.30;99.90;;;;;;5014190;28;21648;-33
2022/10/04 06:32:47;;;;;;;8.68;3.60;;;4.40;99.90;;;;;;5022605;28;20045;-33
2022/10/04 06:35:31;;;;;;;5.05;3.20;;;4.50;99.90;;;;;;5029896;28;20026;-32
2022/10/04 06:38:25;;;;;;;6.75;3.78;;;4.60;99.90;;;;;;5017698;28;20038;-36
2022/10/04 06:41:13;;;;;;;3.40;2.67;;;4.70;99.90;;;;;;5023402;28;20029;-33
2022/10/04 06:44:12;;;;;;;4.90;3.53;;;4.80;99.90;;;;;;5025045;28;20022;-35
2022/10/04 06:46:48;;;;;;;4.60;3.95;;;4.90;99.90;;;;;;5025873;28;20037;-32
2022/10/04 06:49:32;;;;;;;4.68;4.00;;;4.90;99.90;;;;;;5023426;28;20025;-33
2022/10/04 06:52:07;;;;;;;3.97;3.50;;;4.90;99.90;;;;;;5030120;28;20548;-32
2022/10/04 06:54:46;;;;;;;4.43;3.25;;;4.90;99.90;;;;;;5028897;28;20103;-37
2022/10/04 06:57:24;;;;;;;6.70;3.40;;;4.90;99.90;;;;;;5025195;28;20095;-33
2022/10/04 06:59:58;;;;;;;7.50;3.53;;;5.10;99.90;;;;;;5026726;28;20083;-33
2022/10/04 07:02:33;;;;;;;5.78;3.40;;;5.20;99.90;;;;;;5026716;28;20048;-33
2022/10/04 07:05:13;;;;;;;4.63;3.78;;;5.20;99.90;;;;;;5026464;28;20503;-35
2022/10/04 07:07:46;;;;;;;5.93;4.18;;;5.30;99.90;;;;;;5019578;28;20040;-34
2022/10/04 07:10:15;;;;;;;5.45;3.80;;;5.50;99.90;;;;;;5025545;28;20056;-32
2022/10/04 07:12:47;;;;;;;5.50;3.72;;;5.60;99.90;;;;;;5030046;28;20057;-35
2022/10/04 07:15:22;;;;;;;6.75;4.18;;;5.60;99.90;;;;;;5023072;28;20076;-35
2022/10/04 07:17:50;;;;;;;5.75;4.35;;;5.80;99.90;;;;;;5017698;28;20048;-32
2022/10/04 07:20:32;;;;;;;6.15;3.95;;;5.90;99.90;;;;;;5010260;28;20056;-32
2022/10/04 07:23:13;;;;;;;5.93;3.70;;;6.10;99.90;;;;;;5025146;28;20404;-34
2022/10/04 07:25:49;;;;;;;6.75;4.07;;;6.20;99.90;;;;;;5025023;28;20029;-32
2022/10/04 07:31:12;;;;;;;5.95;4.18;;;6.40;99.90;;;;;;5025375;28;20044;-33
2022/10/04 07:33:47;;;;;;;8.60;4.80;;;6.50;99.90;;;;;;5003238;28;20025;-33
2022/10/04 07:36:17;;;;;;;5.68;4.60;;;6.70;99.90;;;;;;5017233;28;20386;-32
2022/10/04 07:39:03;;;;;;;6.30;5.20;;;6.80;99.90;;;;;;5026566;28;20108;-34
2022/10/04 07:41:38;;;;;;;11.95;5.45;;;7.00;99.90;;;;;;5025920;28;20111;-33
2022/10/04 07:44:33;;;;;;;7.88;5.05;;;7.10;99.90;;;;;;5023735;28;20030;-32
2022/10/04 07:47:19;;;;;;;8.45;5.05;;;7.30;99.90;;;;;;5024770;28;20041;-34
2022/10/04 07:49:48;;;;;;;6.47;4.45;;;7.40;99.90;;;;;;5022576;28;20033;-36
2022/10/04 07:52:47;;;;;;;7.03;4.80;;;7.60;99.90;;;;;;5026811;28;20033;-33
2022/10/04 07:55:51;;;;;;;9.32;4.82;;;7.70;99.90;;;;;;5019934;28;20099;-34
2022/10/04 07:58:33;;;;;;;13.43;4.70;;;7.80;99.90;;;;;;4965373;28;20039;-33
2022/10/04 08:01:00;;;;;;;5.63;4.32;;;7.90;99.90;;;;;;5018751;28;20037;-34
2022/10/04 08:04:03;;;;;;;8.65;5.10;;;8.00;99.90;;;;;;5022617;28;20041;-32
2022/10/04 08:06:36;;;;;;;8.32;4.10;;;8.10;99.90;;;;;;5020419;28;20037;-30
2022/10/04 08:09:24;;;;;;;5.53;4.22;;;8.20;99.90;;;;;;5023534;28;21175;-31
2022/10/04 08:12:25;;;;;;;6.22;4.35;;;8.30;99.90;;;;;;5016182;28;20272;-35
2022/10/04 08:15:12;;;;;;;10.57;4.72;;;8.40;99.90;;;;;;5025490;28;20475;-31
2022/10/04 08:18:10;;;;;;;7.30;4.35;;;8.60;99.90;;;;;;5022021;28;20429;-33
2022/10/04 08:20:42;;;;;;;8.02;4.50;;;8.60;99.90;;;;;;5011621;28;20590;-31
2022/10/04 08:23:26;;;;;;;8.07;4.68;;;8.80;99.90;;;;;;5017810;28;20029;-32
2022/10/04 08:26:18;;;;;;;7.63;5.07;;;9.00;99.90;;;;;;5023985;28;20029;-31
2022/10/04 08:32:14;;;;;;;5.78;4.10;;;9.20;99.90;;;;;;5024575;28;20064;-32
2022/10/04 08:35:02;;;;;;;6.80;4.38;;;9.30;99.90;;;;;;5020863;28;20021;-31
2022/10/04 08:38:05;;;;;;;7.32;4.50;;;9.40;99.90;;;;;;5021014;28;20018;-30
2022/10/04 08:40:45;;;;;;;5.15;4.00;;;9.50;99.90;;;;;;5026707;28;20495;-31
2022/10/04 08:43:32;;;;;;;8.25;4.07;;;9.60;99.90;;;;;;5024630;28;20147;-32
2022/10/04 08:46:24;;;;;;;6.50;4.53;;;9.60;99.90;;;;;;5020797;28;20065;-31
2022/10/04 08:49:07;;;;;;;9.00;4.13;;;9.70;99.90;;;;;;5005865;28;20038;-31
2022/10/04 08:51:39;;;;;;;9.02;4.72;;;9.80;99.90;;;;;;5023938;28;20061;-32
2022/10/04 08:54:13;;;;;;;6.20;4.30;;;9.80;99.90;;;;;;5022900;28;20083;-30
2022/10/04 08:57:11;;;;;;;5.82;4.13;;;10.00;99.90;;;;;;5022536;28;20021;-30
2022/10/04 08:59:52;;;;;;;6.22;3.47;;;10.10;99.90;;;;;;5017437;28;20053;-36
2022/10/04 09:02:23;;;;;;;5.03;3.20;;;10.10;99.90;;;;;;5025663;28;20044;-30
2022/10/04 09:04:52;;;;;;;6.75;3.00;;;10.20;99.90;;;;;;5022540;28;20410;-30
2022/10/04 09:07:23;;;;;;;;;;;10.30;99.90;;;;;;5022611;28;20053;-30
2022/10/04 09:10:20;;;;;;;7.90;4.00;;;10.40;99.90;;;;;;5017768;28;19920;-33
2022/10/04 09:13:05;;;;;;;8.77;3.75;;;10.30;99.90;;;;;;5020229;28;20482;-33
2022/10/04 09:15:48;;;;;;;4.97;3.85;;;10.40;99.90;;;;;;5021804;28;20303;-31
2022/10/04 09:18:21;;;;;;;3.90;3.08;;;10.60;99.90;;;;;;5017855;28;20036;-31
2022/10/04 09:21:03;;;;;;;7.60;3.80;;;10.50;99.90;;;;;;5017405;28;20041;-31
2022/10/04 09:23:33;;;;;;;6.95;3.63;;;10.70;99.90;;;;;;5019231;28;20030;-33
2022/10/04 09:26:17;;;;;;;5.05;3.17;;;10.80;99.90;;;;;;5022265;28;20032;-32
2022/10/04 09:29:13;;;;;;;7.45;3.65;;;10.90;99.90;;;;;;5020928;28;20101;-32
2022/10/04 09:31:53;;;;;;;7.78;4.10;;;10.90;99.90;;;;;;5021101;28;20406;-31
2022/10/04 09:34:37;;;;;;;4.65;3.13;;;11.10;99.90;;;;;;5026450;28;20036;-31
2022/10/04 09:37:28;;;;;;;7.10;3.50;;;11.10;99.90;;;;;;5026020;28;20030;-31
2022/10/04 09:39:54;;;;;;;11.13;6.03;;;11.20;99.90;;;;;;5022132;28;20025;-31
2022/10/04 09:42:32;;;;;;;14.85;9.65;;;11.20;99.90;;;;;;5027338;28;20029;-33
2022/10/04 09:45:29;;;;;;;10.15;6.43;;;11.30;99.90;;;;;;5026720;28;20363;-32
2022/10/04 09:48:17;;;;;;;8.43;4.63;;;11.50;99.90;;;;;;5025418;28;20104;-32
2022/10/04 09:51:08;;;;;;;5.25;3.40;;;11.70;99.90;;;;;;5023948;28;20658;-32
2022/10/04 09:53:53;;;;;;;5.78;3.63;;;11.60;99.90;;;;;;5024781;28;20067;-31
2022/10/04 09:56:52;;;;;;;5.20;3.92;;;11.60;99.90;;;;;;5023404;28;20037;-30
2022/10/04 10:00:06;;;;;;;6.45;3.40;;;11.60;99.90;;;;;;5028231;28;20034;-30
2022/10/04 10:02:54;;;;;;;5.65;3.97;;;11.60;99.90;;;;;;5027557;28;20369;-30
2022/10/04 10:05:44;;;;;;;6.20;3.75;;;11.60;99.90;;;;;;5021619;28;20037;-31
2022/10/04 10:08:52;;;;;;;4.10;3.13;;;11.60;99.90;;;;;;5023923;28;20037;-32
2022/10/04 10:14:41;;;;;;;6.45;3.63;;;11.70;99.90;;;;;;5023632;28;19987;-31
2022/10/04 10:17:25;;;;;;;4.40;3.10;;;11.70;99.90;;;;;;5017370;28;20092;-32
2022/10/04 10:19:57;;;;;;;7.03;3.80;;;11.70;99.90;;;;;;5024413;28;20032;-34
2022/10/04 10:22:59;;;;;;;5.78;3.75;;;11.70;99.90;;;;;;5021134;28;20029;-30
2022/10/04 10:25:27;;;;;;;5.93;3.40;;;11.80;99.90;;;;;;5013963;28;20021;-32
2022/10/04 10:27:56;;;;;;;;;;;11.90;99.90;;;;;;5025230;28;20360;-31
2022/10/04 10:30:48;;;;;;;7.22;3.53;;;12.20;99.90;;;;;;5018522;28;21592;-33
2022/10/04 10:33:14;;;;;;;14.10;3.70;;;12.30;99.90;;;;;;5022888;28;20017;-32
2022/10/04 10:36:03;;;;;;;6.13;3.25;;;12.40;99.90;;;;;;5022120;28;20026;-34
2022/10/04 10:39:08;;;;;;;7.07;3.63;;;12.60;99.90;;;;;;5006445;28;20036;-30
2022/10/04 10:41:43;;;;;;;4.65;3.35;;;12.80;99.90;;;;;;5015984;28;20034;-33
2022/10/04 10:44:55;;;;;;;5.97;3.60;;;12.80;99.90;;;;;;5024567;28;20021;-31
2022/10/04 10:47:47;;;;;;;10.52;4.13;;;13.00;99.90;;;;;;5004227;28;20113;-32
2022/10/04 10:50:57;;;;;;;6.45;3.65;;;13.10;99.90;;;;;;5023826;28;20018;-31
2022/10/04 10:53:42;;;;;;;5.75;3.75;;;13.30;99.90;;;;;;5020323;28;20471;-32
2022/10/04 10:56:28;;;;;;;7.70;3.22;;;13.40;99.90;;;;;;5024346;28;20030;-32
2022/10/04 10:59:30;;;;;;;4.95;3.15;;;13.50;99.90;;;;;;5023607;28;20041;-31
2022/10/04 11:02:09;;;;;;;4.45;3.47;;;13.60;99.90;;;;;;5024753;28;20057;-31
2022/10/04 11:04:53;;;;;;;;;;;13.70;99.90;;;;;;5022808;28;20040;-35
2022/10/04 11:07:36;;;;;;;5.05;3.80;;;13.80;99.90;;;;;;5016851;28;20036;-32
2022/10/04 11:10:26;;;;;;;8.02;3.53;;;13.70;99.90;;;;;;5019228;28;20091;-31
2022/10/04 11:13:40;;;;;;;5.97;3.60;;;13.50;99.90;;;;;;5021631;28;20044;-31
2022/10/04 11:16:18;;;;;;;7.55;4.00;;;13.60;99.90;;;;;;4991302;28;20041;-31
2022/10/04 11:19:16;;;;;;;7.47;3.70;;;13.70;99.90;;;;;;5024901;28;20030;-33
2022/10/04 11:22:29;;;;;;;5.55;3.38;;;13.80;99.90;;;;;;4983661;28;1088034;-32
2022/10/04 11:25:06;;;;;;;5.35;3.70;;;13.60;99.90;;;;;;5024544;28;20443;-31
2022/10/04 11:27:44;;;;;;;6.97;4.00;;;13.70;99.90;;;;;;5021431;28;20492;-31
2022/10/04 11:30:28;;;;;;;7.55;3.65;;;13.70;99.90;;;;;;5023178;28;20116;-31
2022/10/04 11:33:12;;;;;;;6.88;3.63;;;13.70;99.90;;;;;;5022369;28;20041;-30
2022/10/04 11:35:53;;;;;;;4.80;3.20;;;13.70;99.90;;;;;;5021925;28;20417;-31
2022/10/04 11:38:49;;;;;;;4.28;3.17;;;13.70;99.90;;;;;;5024586;28;20025;-30
2022/10/04 11:41:46;;;;;;;4.60;3.92;;;13.70;99.90;;;;;;5021837;28;20053;-33
2022/10/04 11:44:33;;;;;;;3.80;3.33;;;13.70;99.90;;;;;;5016082;28;20402;-35
2022/10/04 11:46:59;;;;;;;10.02;3.65;;;13.80;99.90;;;;;;5022740;28;20638;-30
2022/10/04 11:49:46;;;;;;;162.35;19.30;;;13.90;99.90;;;;;;5021924;28;20026;-31
2022/10/04 11:52:39;;;;;;;8.07;4.15;;;13.90;99.90;;;;;;5022075;28;20029;-31
2022/10/04 11:55:22;;;;;;;8.15;4.03;;;14.00;99.90;;;;;;5018786;28;20029;-32
2022/10/04 11:57:54;;;;;;;7.10;3.60;;;14.20;99.90;;;;;;5018061;28;20033;-31
2022/10/04 12:00:22;;;;;;;14.88;3.65;;;14.20;99.90;;;;;;5018964;28;20068;-33
2022/10/04 12:03:16;;;;;;;5.57;2.95;;;14.20;99.90;;;;;;5025465;28;20030;-30
2022/10/04 12:06:02;;;;;;;131.80;11.48;;;14.30;99.90;;;;;;5023498;28;20061;-30
2022/10/04 12:08:47;;;;;;;126.55;28.92;;;14.30;99.90;;;;;;5021607;28;20033;-30
2022/10/04 12:12:35;;;;;;;19.77;7.45;;;14.40;99.90;;;;;;5020443;28;20138;-31
2022/10/04 12:14:26;;;;;;;6.03;3.08;;;14.50;99.90;;;;;;5023333;28;20025;-32
2022/10/04 12:17:27;;;;;;;4.75;2.65;;;14.70;99.90;;;;;;5020547;28;20076;-30
2022/10/04 12:20:18;;;;;;;4.20;2.70;;;14.70;99.90;;;;;;5022762;28;20031;-31
2022/10/04 12:22:59;;;;;;;4.22;2.70;;;14.80;99.90;;;;;;5025384;28;20052;-31
2022/10/04 12:25:49;;;;;;;10.68;4.55;;;14.80;99.90;;;;;;5023342;28;20053;-32
2022/10/04 12:28:30;;;;;;;6.30;3.10;;;14.80;99.90;;;;;;5025535;28;20486;-30
2022/10/04 12:31:01;;;;;;;2.97;2.60;;;14.90;99.90;;;;;;5021398;28;20037;-30
2022/10/04 12:33:33;;;;;;;2.13;1.83;;;14.90;99.90;;;;;;5018931;28;20392;-32
2022/10/04 12:36:09;;;;;;;4.30;2.33;;;15.00;99.90;;;;;;5018696;28;20032;-29
2022/10/04 12:38:35;;;;;;;4.18;2.35;;;14.90;99.90;;;;;;5020311;28;20548;-30
2022/10/04 12:41:23;;;;;;;3.75;2.55;;;14.80;99.90;;;;;;5018158;28;20037;-36
2022/10/04 12:44:06;;;;;;;3.85;2.42;;;14.80;99.90;;;;;;5014581;28;20030;-30
2022/10/04 12:47:01;;;;;;;2.53;2.10;;;14.80;99.90;;;;;;5018365;28;20029;-30
2022/10/04 12:49:45;;;;;;;4.50;2.08;;;14.80;99.90;;;;;;4987097;28;20043;-31
2022/10/04 12:52:19;;;;;;;9.27;2.42;;;14.90;98.80;;;;;;5022922;28;20033;-30
2022/10/04 12:54:59;;;;;;;3.97;2.33;;;15.00;99.90;;;;;;5024364;28;20088;-30
2022/10/04 12:57:52;;;;;;;6.60;2.38;;;15.00;99.90;;;;;;5019643;28;20029;-31
2022/10/04 13:00:18;;;;;;;4.07;2.83;;;15.00;99.90;;;;;;5024951;28;20121;-33
2022/10/04 13:03:01;;;;;;;2.55;2.30;;;15.10;99.90;;;;;;5019281;28;20128;-31
2022/10/04 13:05:51;;;;;;;8.10;2.75;;;15.10;99.90;;;;;;5019393;28;20026;-30
2022/10/04 13:08:45;;;;;;;2.33;2.13;;;15.20;99.60;;;;;;5020940;28;20034;-30
2022/10/04 13:11:17;;;;;;;3.13;2.45;;;15.20;99.90;;;;;;5018739;28;20038;-33
2022/10/04 13:13:51;;;;;;;3.40;2.30;;;15.20;99.90;;;;;;5025354;28;20138;-33
2022/10/04 13:16:44;;;;;;;3.15;2.08;;;15.20;98.20;;;;;;5019395;28;20443;-30
2022/10/04 13:19:22;;;;;;;6.30;3.00;;;15.10;99.90;;;;;;5023748;28;20383;-30
2022/10/04 13:22:01;;;;;;;5.95;3.20;;;15.10;99.80;;;;;;5020149;28;20030;-29
2022/10/04 13:24:59;;;;;;;4.30;2.88;;;15.00;99.90;;;;;;5018626;28;20018;-34
2022/10/04 13:28:02;;;;;;;6.57;3.05;;;15.00;99.90;;;;;;5023018;28;20053;-30
2022/10/04 13:30:36;;;;;;;4.70;3.15;;;15.10;99.90;;;;;;5019340;28;20040;-32
2022/10/04 13:33:16;;;;;;;6.80;3.40;;;15.10;99.90;;;;;;5018303;28;20125;-29
2022/10/04 13:35:55;;;;;;;5.80;3.85;;;15.10;99.90;;;;;;5018086;28;20045;-30
2022/10/04 13:38:22;;;;;;;6.85;3.78;;;15.20;99.90;;;;;;5021717;28;20384;-33
2022/10/04 13:41:16;;;;;;;8.00;3.30;;;15.10;99.80;;;;;;5016275;28;20078;-31
2022/10/04 13:44:33;;;;;;;6.32;3.90;;;15.10;99.90;;;;;;5018072;28;20057;-30
2022/10/04 13:47:05;;;;;;;5.18;3.05;;;15.20;99.90;;;;;;5000438;28;20109;-30
2022/10/04 13:49:51;;;;;;;6.03;3.38;;;15.10;99.90;;;;;;5018467;28;20029;-33
2022/10/04 13:58:27;;;;;;;5.70;3.00;;;15.20;99.90;;;;;;5016363;28;20103;-30
2022/10/04 14:00:53;;;;;;;;;;;15.20;97.80;;;;;;5020339;28;20396;-30
2022/10/04 14:03:29;;;;;;;4.07;2.70;;;15.20;98.00;;;;;;5025790;28;20345;-31
2022/10/04 14:06:10;;;;;;;3.30;2.45;;;15.20;97.10;;;;;;5015782;28;20037;-31
2022/10/04 14:09:05;;;;;;;3.90;2.50;;;15.30;97.60;;;;;;5020181;28;20068;-31
2022/10/04 14:11:40;;;;;;;3.38;2.70;;;15.30;97.40;;;;;;5019615;28;20487;-31
2022/10/04 14:14:17;;;;;;;3.92;2.10;;;15.40;98.10;;;;;;5017373;28;20128;-31
2022/10/04 14:16:54;;;;;;;5.05;2.40;;;15.50;98.10;;;;;;5023465;28;20136;-31
2022/10/04 14:19:59;;;;;;;3.35;2.42;;;15.50;97.50;;;;;;5028030;28;20037;-31